Seadream 1 — C6PW8 — position and weather

sailwx.info

Track history (hours):
 
Tides and Currents Weather Stations Pressure Air Temp Water Temp Dewpoint Dewpoint Depression Visibility Wind Speed Wind Dir Waves Ship Positions

Seadream 1

Last reported at 2014-Dec-20 13:07 UTC. Time now 2014-Dec-20 20:51 UTC.
Position N 18°29' W 064°26'.

Length 105 m; draft 4.4 m.

Type: Ship. MMSI: 308908000.

Date/timePositionNaut miles runAvg speedWind from/ knotsBaromVisibWave heightAir tempDewpointWater temp
2014-Dec-20 13:07N 18°29' W 064°26'2 1.2
2014-Dec-20 11:32N 18°27' W 064°27'7 6.5
2014-Dec-20 10:27N 18°21' W 064°24'  
2014-Dec-18 05:18N 17°02' W 061°57'7 9.4
2014-Dec-18 04:33N 16°60' W 061°50'3 2.6
2014-Dec-18 03:33N 17°00' W 061°47'0 0.0
2014-Dec-18 02:31N 17°00' W 061°47'0 0.0
2014-Dec-18 01:32N 17°00' W 061°47'0 0.0
2014-Dec-18 00:32N 17°00' W 061°47'0 0.0
2014-Dec-17 23:33N 17°00' W 061°47'0 0.0
2014-Dec-17 22:31N 17°00' W 061°47'0 0.0
2014-Dec-17 21:32N 17°00' W 061°47'0 0.0
2014-Dec-17 20:33N 17°00' W 061°47'0 0.0
2014-Dec-17 19:33N 17°00' W 061°47'0 0.0
2014-Dec-17 18:31N 17°00' W 061°47'0 0.0
2014-Dec-17 17:33N 17°00' W 061°47'0 0.0
2014-Dec-17 16:31N 17°00' W 061°47'0 0.0
2014-Dec-17 15:32N 17°00' W 061°47'0 0.0
2014-Dec-17 14:32N 17°00' W 061°47'0 0.0
2014-Dec-17 13:33N 17°00' W 061°47'0 0.0
2014-Dec-17 12:31N 17°00' W 061°47'3 3.2
2014-Dec-17 11:33N 16°59' W 061°50'10 8.1
2014-Dec-17 10:19N 17°05' W 061°59'  
2014-Dec-15 03:20N 18°17' W 064°37'810.5
2014-Dec-15 02:33N 18°18' W 064°45'4 3.6
2014-Dec-15 01:26N 18°20' W 064°48'0 0.0
2014-Dec-15 00:32N 18°20' W 064°48'0 0.0
2014-Dec-14 23:33N 18°20' W 064°48'0 0.0
2014-Dec-14 22:28N 18°20' W 064°48'0 0.0
2014-Dec-14 21:23N 18°20' W 064°48'0 0.0
2014-Dec-14 20:29N 18°20' W 064°48'0 0.0
2014-Dec-14 19:24N 18°20' W 064°48'0 0.0
2014-Dec-14 18:28N 18°20' W 064°48'0 0.1
2014-Dec-14 17:29N 18°20' W 064°48'0 0.0
2014-Dec-14 16:29N 18°20' W 064°48'0 0.0
2014-Dec-14 15:33N 18°20' W 064°48'0 0.0
2014-Dec-14 14:31N 18°20' W 064°48'0 0.0
2014-Dec-14 13:31N 18°20' W 064°48'8 2.8
2014-Dec-14 10:33N 18°14' W 064°53'21 0.7
2014-Dec-13 04:33N 18°22' W 064°33'4 3.5
2014-Dec-13 03:22N 18°26' W 064°32'0 0.0
2014-Dec-13 02:18N 18°26' W 064°32'0 0.0
2014-Dec-12 23:29N 18°26' W 064°32'0 0.0
2014-Dec-12 22:29N 18°26' W 064°32'  
Track history (hours):
 
Tides and Currents Weather Stations Pressure Air Temp Water Temp Dewpoint Dewpoint Depression Visibility Wind Speed Wind Dir Waves Ship Positions

Seadream 1

Last reported at 2014-Dec-20 13:07 UTC. Time now 2014-Dec-20 20:51 UTC.
Position N 18°29' W 064°26'.

Length 105 m; draft 4.4 m.

Type: Ship. MMSI: 308908000.

Date/timePositionNaut miles runAvg speedWind from/ knotsBaromVisibWave heightAir tempDewpointWater temp
2014-Dec-20 13:07N 18°29' W 064°26'2 1.2
2014-Dec-20 11:32N 18°27' W 064°27'7 6.5
2014-Dec-20 10:27N 18°21' W 064°24'  
2014-Dec-18 05:18N 17°02' W 061°57'7 9.4
2014-Dec-18 04:33N 16°60' W 061°50'3 2.6
2014-Dec-18 03:33N 17°00' W 061°47'0 0.0
2014-Dec-18 02:31N 17°00' W 061°47'0 0.0
2014-Dec-18 01:32N 17°00' W 061°47'0 0.0
2014-Dec-18 00:32N 17°00' W 061°47'0 0.0
2014-Dec-17 23:33N 17°00' W 061°47'0 0.0
2014-Dec-17 22:31N 17°00' W 061°47'0 0.0
2014-Dec-17 21:32N 17°00' W 061°47'0 0.0
2014-Dec-17 20:33N 17°00' W 061°47'0 0.0
2014-Dec-17 19:33N 17°00' W 061°47'0 0.0
2014-Dec-17 18:31N 17°00' W 061°47'0 0.0
2014-Dec-17 17:33N 17°00' W 061°47'0 0.0
2014-Dec-17 16:31N 17°00' W 061°47'0 0.0
2014-Dec-17 15:32N 17°00' W 061°47'0 0.0
2014-Dec-17 14:32N 17°00' W 061°47'0 0.0
2014-Dec-17 13:33N 17°00' W 061°47'0 0.0
2014-Dec-17 12:31N 17°00' W 061°47'3 3.2
2014-Dec-17 11:33N 16°59' W 061°50'10 8.1
2014-Dec-17 10:19N 17°05' W 061°59'  
2014-Dec-15 03:20N 18°17' W 064°37'810.5
2014-Dec-15 02:33N 18°18' W 064°45'4 3.6
2014-Dec-15 01:26N 18°20' W 064°48'0 0.0
2014-Dec-15 00:32N 18°20' W 064°48'0 0.0
2014-Dec-14 23:33N 18°20' W 064°48'0 0.0
2014-Dec-14 22:28N 18°20' W 064°48'0 0.0
2014-Dec-14 21:23N 18°20' W 064°48'0 0.0
2014-Dec-14 20:29N 18°20' W 064°48'0 0.0
2014-Dec-14 19:24N 18°20' W 064°48'0 0.0
2014-Dec-14 18:28N 18°20' W 064°48'0 0.1
2014-Dec-14 17:29N 18°20' W 064°48'0 0.0
2014-Dec-14 16:29N 18°20' W 064°48'0 0.0
2014-Dec-14 15:33N 18°20' W 064°48'0 0.0
2014-Dec-14 14:31N 18°20' W 064°48'0 0.0
2014-Dec-14 13:31N 18°20' W 064°48'8 2.8
2014-Dec-14 10:33N 18°14' W 064°53'21 0.7
2014-Dec-13 04:33N 18°22' W 064°33'4 3.5
2014-Dec-13 03:22N 18°26' W 064°32'0 0.0
2014-Dec-13 02:18N 18°26' W 064°32'0 0.0
2014-Dec-12 23:29N 18°26' W 064°32'0 0.0
2014-Dec-12 22:29N 18°26' W 064°32'  

Dump ship's entire track history